Terminal Aerodrome Forecast
Issued by NWS

Home | Current Version | Previous Version | Text Only | Print | Product List | Glossary On
Versions: 1 2 3 4 5 6 7 8 9 10 11 12 13 14 15 16 17 18 19 20 21 22 23 24 25 26 27 28 29 30 31 32 33
000
FTUS43 KDLH 130700 AAA
TAFHYR
TAF AMD
KHYR 130717Z 1307/1406 20005KT P6SM VCSH OVC090
     FM130900 25008KT P6SM SCT060
     FM131600 30012G18KT P6SM SCT060
     FM140100 28008KT P6SM OVC090=

USA.gov is the U.S. government's official web portal to all federal, state and local government web resources and services.